Startpagina
METAR-TAF:

METAR-TAF

Vliegvelden :

Büchel, Duitsland

breedte: 50-10N, lengte: 007-04E, hoogte: 478 m

Actueel weer

Dit bericht is 1 uur en het 7 minuten geleden gemaakt, om 07:20 UTC
Wind 3 kt uit variabele richting
Temperatuur 18°C
Vochtigheid 64%
Druk 1015 hPa
Zicht 10 km of meer

METAR: ETSB 220720Z AUTO VRB03KT 9999 // ////// 18/11 Q1015 ///

Tijdstip: 10:27 (08:27 UTC)


TAF: ontbreekt

Waarnemingen en weersverwachtingen van meer dan 4000 vliegvelden (METAR en TAF).

De beschikbare stations zijn de gele en rode punten op de kaart.

Ga met uw muis naar het station om de naam te zien.

Klik dan om waarnemingen en weersverwachtingen te zien.

kaart wijzigen: klik op de groene knoppen met een zwart kruis om in te zoomen, op de groene knop met een streepje om uit te zoomen of op de groene pijlen voor aangrenzende kaarten.


METAR-TAF: